sensor_id;sensor_type;location;lat;lon;timestamp;temperature;humidity
68385;DHT22;55336;43.062;25.626;2023-09-19T00:01:33;11.40;99.90
68385;DHT22;55336;43.062;25.626;2023-09-19T00:03:59;11.40;99.90
68385;DHT22;55336;43.062;25.626;2023-09-19T00:06:29;11.40;99.90
68385;DHT22;55336;43.062;25.626;2023-09-19T00:09:00;11.40;99.90
68385;DHT22;55336;43.062;25.626;2023-09-19T00:11:26;11.30;99.90
68385;DHT22;55336;43.062;25.626;2023-09-19T00:13:52;11.20;99.90
68385;DHT22;55336;43.062;25.626;2023-09-19T00:16:19;11.30;99.90
68385;DHT22;55336;43.062;25.626;2023-09-19T00:18:45;11.30;99.90
68385;DHT22;55336;43.062;25.626;2023-09-19T00:21:12;11.20;99.90
68385;DHT22;55336;43.062;25.626;2023-09-19T00:23:38;11.20;99.90
68385;DHT22;55336;43.062;25.626;2023-09-19T00:26:04;11.20;99.90
68385;DHT22;55336;43.062;25.626;2023-09-19T00:28:29;11.20;99.90
68385;DHT22;55336;43.062;25.626;2023-09-19T00:30:55;11.10;99.90
68385;DHT22;55336;43.062;25.626;2023-09-19T00:33:21;11.10;99.90
68385;DHT22;55336;43.062;25.626;2023-09-19T00:35:48;11.10;99.90
68385;DHT22;55336;43.062;25.626;2023-09-19T00:38:14;11.10;99.90
68385;DHT22;55336;43.062;25.626;2023-09-19T00:40:47;11.00;99.90
68385;DHT22;55336;43.062;25.626;2023-09-19T00:43:12;11.00;99.90
68385;DHT22;55336;43.062;25.626;2023-09-19T00:45:38;11.00;99.90
68385;DHT22;55336;43.062;25.626;2023-09-19T00:48:09;10.90;99.90
68385;DHT22;55336;43.062;25.626;2023-09-19T00:50:35;10.90;99.90
68385;DHT22;55336;43.062;25.626;2023-09-19T00:53:02;11.00;99.90
68385;DHT22;55336;43.062;25.626;2023-09-19T00:55:34;10.90;99.90
68385;DHT22;55336;43.062;25.626;2023-09-19T00:58:00;10.90;99.90
68385;DHT22;55336;43.062;25.626;2023-09-19T01:00:27;10.90;99.90
68385;DHT22;55336;43.062;25.626;2023-09-19T01:02:54;10.90;99.90
68385;DHT22;55336;43.062;25.626;2023-09-19T01:05:21;10.80;99.90
68385;DHT22;55336;43.062;25.626;2023-09-19T01:07:47;10.80;99.90
68385;DHT22;55336;43.062;25.626;2023-09-19T01:10:18;10.80;99.90
68385;DHT22;55336;43.062;25.626;2023-09-19T01:13:04;10.80;99.90
68385;DHT22;55336;43.062;25.626;2023-09-19T01:18:27;10.70;99.90
68385;DHT22;55336;43.062;25.626;2023-09-19T01:23:55;10.70;99.90
68385;DHT22;55336;43.062;25.626;2023-09-19T01:29:38;10.70;99.90
68385;DHT22;55336;43.062;25.626;2023-09-19T01:32:06;10.60;99.90
68385;DHT22;55336;43.062;25.626;2023-09-19T01:37:16;10.50;99.90
68385;DHT22;55336;43.062;25.626;2023-09-19T01:40:08;10.50;99.90
68385;DHT22;55336;43.062;25.626;2023-09-19T01:43:04;10.40;99.90
68385;DHT22;55336;43.062;25.626;2023-09-19T01:45:44;10.40;99.90
68385;DHT22;55336;43.062;25.626;2023-09-19T01:51:10;10.30;99.90
68385;DHT22;55336;43.062;25.626;2023-09-19T01:53:51;10.30;99.90
68385;DHT22;55336;43.062;25.626;2023-09-19T01:56:35;10.20;99.90
68385;DHT22;55336;43.062;25.626;2023-09-19T01:59:07;10.30;99.90
68385;DHT22;55336;43.062;25.626;2023-09-19T02:01:37;10.30;99.90
68385;DHT22;55336;43.062;25.626;2023-09-19T02:04:03;10.30;99.90
68385;DHT22;55336;43.062;25.626;2023-09-19T02:06:30;10.20;99.90
68385;DHT22;55336;43.062;25.626;2023-09-19T02:08:57;10.30;99.90
68385;DHT22;55336;43.062;25.626;2023-09-19T02:11:22;10.20;99.90
68385;DHT22;55336;43.062;25.626;2023-09-19T02:13:53;10.30;99.90
68385;DHT22;55336;43.062;25.626;2023-09-19T02:16:20;10.10;99.90
68385;DHT22;55336;43.062;25.626;2023-09-19T02:18:48;10.20;99.90
68385;DHT22;55336;43.062;25.626;2023-09-19T02:21:15;10.20;99.90
68385;DHT22;55336;43.062;25.626;2023-09-19T02:23:43;10.10;99.90
68385;DHT22;55336;43.062;25.626;2023-09-19T02:26:10;10.10;99.90
68385;DHT22;55336;43.062;25.626;2023-09-19T02:28:37;10.20;99.90
68385;DHT22;55336;43.062;25.626;2023-09-19T02:31:03;10.20;99.90
68385;DHT22;55336;43.062;25.626;2023-09-19T02:33:31;10.20;99.90
68385;DHT22;55336;43.062;25.626;2023-09-19T02:35:58;10.10;99.90
68385;DHT22;55336;43.062;25.626;2023-09-19T02:38:25;10.10;99.90
68385;DHT22;55336;43.062;25.626;2023-09-19T02:40:52;10.00;99.90
68385;DHT22;55336;43.062;25.626;2023-09-19T02:43:18;10.00;99.90
68385;DHT22;55336;43.062;25.626;2023-09-19T02:45:47;10.00;99.90
68385;DHT22;55336;43.062;25.626;2023-09-19T02:48:16;9.90;99.90
68385;DHT22;55336;43.062;25.626;2023-09-19T02:50:42;9.90;99.90
68385;DHT22;55336;43.062;25.626;2023-09-19T02:53:10;9.90;99.90
68385;DHT22;55336;43.062;25.626;2023-09-19T02:55:38;9.90;99.90
68385;DHT22;55336;43.062;25.626;2023-09-19T02:58:06;9.90;99.90
68385;DHT22;55336;43.062;25.626;2023-09-19T03:00:37;9.90;99.90
68385;DHT22;55336;43.062;25.626;2023-09-19T03:03:03;9.90;99.90
68385;DHT22;55336;43.062;25.626;2023-09-19T03:05:30;9.80;99.90
68385;DHT22;55336;43.062;25.626;2023-09-19T03:07:56;9.70;99.90
68385;DHT22;55336;43.062;25.626;2023-09-19T03:10:23;9.80;99.90
68385;DHT22;55336;43.062;25.626;2023-09-19T03:12:50;9.70;99.90
68385;DHT22;55336;43.062;25.626;2023-09-19T03:15:16;9.70;99.90
68385;DHT22;55336;43.062;25.626;2023-09-19T03:17:47;9.70;99.90
68385;DHT22;55336;43.062;25.626;2023-09-19T03:20:14;9.70;99.90
68385;DHT22;55336;43.062;25.626;2023-09-19T03:22:45;9.70;99.90
68385;DHT22;55336;43.062;25.626;2023-09-19T03:25:12;9.60;99.90
68385;DHT22;55336;43.062;25.626;2023-09-19T03:27:41;9.60;99.90
68385;DHT22;55336;43.062;25.626;2023-09-19T03:30:08;9.60;99.90
68385;DHT22;55336;43.062;25.626;2023-09-19T03:32:37;9.60;99.90
68385;DHT22;55336;43.062;25.626;2023-09-19T03:35:08;9.60;99.90
68385;DHT22;55336;43.062;25.626;2023-09-19T03:37:34;9.60;99.90
68385;DHT22;55336;43.062;25.626;2023-09-19T03:40:00;9.60;99.90
68385;DHT22;55336;43.062;25.626;2023-09-19T03:42:31;9.60;99.90
68385;DHT22;55336;43.062;25.626;2023-09-19T03:44:56;9.50;99.90
68385;DHT22;55336;43.062;25.626;2023-09-19T03:47:22;9.50;99.90
68385;DHT22;55336;43.062;25.626;2023-09-19T03:49:48;9.50;99.90
68385;DHT22;55336;43.062;25.626;2023-09-19T03:52:14;9.50;99.90
68385;DHT22;55336;43.062;25.626;2023-09-19T03:54:41;9.50;99.90
68385;DHT22;55336;43.062;25.626;2023-09-19T03:57:07;9.60;99.90
68385;DHT22;55336;43.062;25.626;2023-09-19T03:59:33;9.50;99.90
68385;DHT22;55336;43.062;25.626;2023-09-19T04:01:59;9.40;99.90
68385;DHT22;55336;43.062;25.626;2023-09-19T04:04:24;9.40;99.90
68385;DHT22;55336;43.062;25.626;2023-09-19T04:06:50;9.40;99.90
68385;DHT22;55336;43.062;25.626;2023-09-19T04:09:16;9.50;99.90
68385;DHT22;55336;43.062;25.626;2023-09-19T04:11:42;9.50;99.90
68385;DHT22;55336;43.062;25.626;2023-09-19T04:14:08;9.50;99.90
68385;DHT22;55336;43.062;25.626;2023-09-19T04:16:34;9.50;99.90
68385;DHT22;55336;43.062;25.626;2023-09-19T04:19:00;9.60;99.90
68385;DHT22;55336;43.062;25.626;2023-09-19T04:21:26;9.60;99.90
68385;DHT22;55336;43.062;25.626;2023-09-19T04:23:55;9.60;99.90
68385;DHT22;55336;43.062;25.626;2023-09-19T04:26:20;9.70;99.90
68385;DHT22;55336;43.062;25.626;2023-09-19T04:28:47;9.70;99.90
68385;DHT22;55336;43.062;25.626;2023-09-19T04:31:13;9.80;99.90
68385;DHT22;55336;43.062;25.626;2023-09-19T04:33:39;9.80;99.90
68385;DHT22;55336;43.062;25.626;2023-09-19T04:36:05;9.90;99.90
68385;DHT22;55336;43.062;25.626;2023-09-19T04:38:33;9.90;99.90
68385;DHT22;55336;43.062;25.626;2023-09-19T04:40:59;10.00;99.90
68385;DHT22;55336;43.062;25.626;2023-09-19T04:43:25;10.00;99.90
68385;DHT22;55336;43.062;25.626;2023-09-19T04:45:51;10.20;99.90
68385;DHT22;55336;43.062;25.626;2023-09-19T04:48:22;10.20;99.90
68385;DHT22;55336;43.062;25.626;2023-09-19T04:50:50;10.30;99.90
68385;DHT22;55336;43.062;25.626;2023-09-19T04:53:17;10.30;99.90
68385;DHT22;55336;43.062;25.626;2023-09-19T04:55:50;10.40;99.90
68385;DHT22;55336;43.062;25.626;2023-09-19T04:58:16;10.50;99.90
68385;DHT22;55336;43.062;25.626;2023-09-19T05:00:43;10.60;99.90
68385;DHT22;55336;43.062;25.626;2023-09-19T05:03:09;10.70;99.90
68385;DHT22;55336;43.062;25.626;2023-09-19T05:05:35;10.70;99.90
68385;DHT22;55336;43.062;25.626;2023-09-19T05:08:00;10.90;99.90
68385;DHT22;55336;43.062;25.626;2023-09-19T05:10:31;10.90;99.90
68385;DHT22;55336;43.062;25.626;2023-09-19T05:12:57;11.00;99.90
68385;DHT22;55336;43.062;25.626;2023-09-19T05:15:23;11.20;99.90
68385;DHT22;55336;43.062;25.626;2023-09-19T05:17:52;11.30;99.90
68385;DHT22;55336;43.062;25.626;2023-09-19T05:20:21;11.40;99.90
68385;DHT22;55336;43.062;25.626;2023-09-19T05:23:07;11.50;99.90
68385;DHT22;55336;43.062;25.626;2023-09-19T05:25:39;11.60;99.90
68385;DHT22;55336;43.062;25.626;2023-09-19T05:28:10;11.80;99.90
68385;DHT22;55336;43.062;25.626;2023-09-19T05:30:38;11.80;99.90
68385;DHT22;55336;43.062;25.626;2023-09-19T05:33:09;12.00;99.90
68385;DHT22;55336;43.062;25.626;2023-09-19T05:35:37;12.00;99.90
68385;DHT22;55336;43.062;25.626;2023-09-19T05:38:05;12.20;99.90
68385;DHT22;55336;43.062;25.626;2023-09-19T05:40:35;12.40;99.90
68385;DHT22;55336;43.062;25.626;2023-09-19T05:43:01;12.50;99.90
68385;DHT22;55336;43.062;25.626;2023-09-19T05:45:28;12.70;99.90
68385;DHT22;55336;43.062;25.626;2023-09-19T05:47:54;12.90;99.90
68385;DHT22;55336;43.062;25.626;2023-09-19T05:50:30;13.20;99.90
68385;DHT22;55336;43.062;25.626;2023-09-19T05:52:58;13.50;99.90
68385;DHT22;55336;43.062;25.626;2023-09-19T05:55:23;13.90;99.90
68385;DHT22;55336;43.062;25.626;2023-09-19T05:57:54;14.40;99.90
68385;DHT22;55336;43.062;25.626;2023-09-19T06:00:20;14.90;99.90
68385;DHT22;55336;43.062;25.626;2023-09-19T06:02:55;15.50;99.90
68385;DHT22;55336;43.062;25.626;2023-09-19T06:05:23;15.80;99.90
68385;DHT22;55336;43.062;25.626;2023-09-19T06:07:49;16.50;99.90
68385;DHT22;55336;43.062;25.626;2023-09-19T06:10:16;17.00;99.90
68385;DHT22;55336;43.062;25.626;2023-09-19T06:12:43;17.50;99.90
68385;DHT22;55336;43.062;25.626;2023-09-19T06:15:10;18.20;99.90
68385;DHT22;55336;43.062;25.626;2023-09-19T06:17:55;18.70;99.90
68385;DHT22;55336;43.062;25.626;2023-09-19T06:20:22;19.00;99.90
68385;DHT22;55336;43.062;25.626;2023-09-19T06:22:48;19.30;99.90
68385;DHT22;55336;43.062;25.626;2023-09-19T06:25:16;19.60;99.90
68385;DHT22;55336;43.062;25.626;2023-09-19T06:27:47;20.10;99.90
68385;DHT22;55336;43.062;25.626;2023-09-19T06:30:14;20.40;99.90
68385;DHT22;55336;43.062;25.626;2023-09-19T06:32:41;20.50;99.90
68385;DHT22;55336;43.062;25.626;2023-09-19T06:35:10;20.60;99.90
68385;DHT22;55336;43.062;25.626;2023-09-19T06:37:40;21.00;99.90
68385;DHT22;55336;43.062;25.626;2023-09-19T06:40:11;21.10;99.90
68385;DHT22;55336;43.062;25.626;2023-09-19T06:43:00;21.20;99.90
68385;DHT22;55336;43.062;25.626;2023-09-19T06:45:28;21.70;99.90
68385;DHT22;55336;43.062;25.626;2023-09-19T06:47:54;22.10;99.90
68385;DHT22;55336;43.062;25.626;2023-09-19T06:50:25;22.50;99.90
68385;DHT22;55336;43.062;25.626;2023-09-19T06:53:02;22.90;99.90
68385;DHT22;55336;43.062;25.626;2023-09-19T06:55:28;22.80;99.90
68385;DHT22;55336;43.062;25.626;2023-09-19T06:57:56;23.00;99.90
68385;DHT22;55336;43.062;25.626;2023-09-19T07:00:23;23.00;99.90
68385;DHT22;55336;43.062;25.626;2023-09-19T07:03:02;23.30;99.90
68385;DHT22;55336;43.062;25.626;2023-09-19T07:05:30;24.10;99.90
68385;DHT22;55336;43.062;25.626;2023-09-19T07:07:57;24.40;99.90
68385;DHT22;55336;43.062;25.626;2023-09-19T07:10:30;24.70;97.50
68385;DHT22;55336;43.062;25.626;2023-09-19T07:13:00;24.80;96.30
68385;DHT22;55336;43.062;25.626;2023-09-19T07:15:27;25.10;96.10
68385;DHT22;55336;43.062;25.626;2023-09-19T07:17:56;24.80;96.30
68385;DHT22;55336;43.062;25.626;2023-09-19T07:20:23;25.20;95.30
68385;DHT22;55336;43.062;25.626;2023-09-19T07:22:55;25.10;91.60
68385;DHT22;55336;43.062;25.626;2023-09-19T07:25:21;25.50;93.00
68385;DHT22;55336;43.062;25.626;2023-09-19T07:27:48;25.90;84.10
68385;DHT22;55336;43.062;25.626;2023-09-19T07:30:14;26.50;83.70
68385;DHT22;55336;43.062;25.626;2023-09-19T07:32:42;26.90;78.60
68385;DHT22;55336;43.062;25.626;2023-09-19T07:35:07;27.30;77.50
68385;DHT22;55336;43.062;25.626;2023-09-19T07:37:34;27.60;74.30
68385;DHT22;55336;43.062;25.626;2023-09-19T07:40:02;28.00;71.60
68385;DHT22;55336;43.062;25.626;2023-09-19T07:42:33;27.50;70.90
68385;DHT22;55336;43.062;25.626;2023-09-19T07:45:03;27.80;67.30
68385;DHT22;55336;43.062;25.626;2023-09-19T07:47:29;27.40;65.20
68385;DHT22;55336;43.062;25.626;2023-09-19T07:49:56;27.30;67.50
68385;DHT22;55336;43.062;25.626;2023-09-19T07:52:22;27.80;67.10
68385;DHT22;55336;43.062;25.626;2023-09-19T07:54:48;27.70;67.70
68385;DHT22;55336;43.062;25.626;2023-09-19T07:57:19;28.00;70.10
68385;DHT22;55336;43.062;25.626;2023-09-19T07:59:48;29.20;62.50
68385;DHT22;55336;43.062;25.626;2023-09-19T08:02:14;29.90;59.00
68385;DHT22;55336;43.062;25.626;2023-09-19T08:04:42;30.40;58.30
68385;DHT22;55336;43.062;25.626;2023-09-19T08:07:08;31.00;54.70
68385;DHT22;55336;43.062;25.626;2023-09-19T08:09:36;30.70;53.00
68385;DHT22;55336;43.062;25.626;2023-09-19T08:12:02;30.70;50.70
68385;DHT22;55336;43.062;25.626;2023-09-19T08:14:28;30.50;49.90
68385;DHT22;55336;43.062;25.626;2023-09-19T08:16:58;30.60;50.50
68385;DHT22;55336;43.062;25.626;2023-09-19T08:19:27;30.90;50.40
68385;DHT22;55336;43.062;25.626;2023-09-19T08:22:00;30.90;48.00
68385;DHT22;55336;43.062;25.626;2023-09-19T08:24:27;31.30;46.80
68385;DHT22;55336;43.062;25.626;2023-09-19T08:26:58;31.30;46.60
68385;DHT22;55336;43.062;25.626;2023-09-19T08:29:25;31.70;44.80
68385;DHT22;55336;43.062;25.626;2023-09-19T08:31:55;32.20;43.30
68385;DHT22;55336;43.062;25.626;2023-09-19T08:34:22;32.50;40.70
68385;DHT22;55336;43.062;25.626;2023-09-19T08:36:51;32.60;39.80
68385;DHT22;55336;43.062;25.626;2023-09-19T08:39:18;32.50;41.10
68385;DHT22;55336;43.062;25.626;2023-09-19T08:41:45;32.20;37.50
68385;DHT22;55336;43.062;25.626;2023-09-19T08:44:12;32.30;38.30
68385;DHT22;55336;43.062;25.626;2023-09-19T08:46:41;32.40;38.00
68385;DHT22;55336;43.062;25.626;2023-09-19T08:49:24;32.20;37.90
68385;DHT22;55336;43.062;25.626;2023-09-19T08:52:01;32.50;35.20
68385;DHT22;55336;43.062;25.626;2023-09-19T08:54:36;32.40;36.60
68385;DHT22;55336;43.062;25.626;2023-09-19T08:57:07;31.90;35.20
68385;DHT22;55336;43.062;25.626;2023-09-19T08:59:40;31.90;36.10
68385;DHT22;55336;43.062;25.626;2023-09-19T09:02:16;32.50;34.20
68385;DHT22;55336;43.062;25.626;2023-09-19T09:04:45;32.90;32.80
68385;DHT22;55336;43.062;25.626;2023-09-19T09:07:13;32.80;33.00
68385;DHT22;55336;43.062;25.626;2023-09-19T09:09:40;33.00;32.50
68385;DHT22;55336;43.062;25.626;2023-09-19T09:12:14;33.60;32.60
68385;DHT22;55336;43.062;25.626;2023-09-19T09:14:45;33.60;30.90
68385;DHT22;55336;43.062;25.626;2023-09-19T09:17:11;33.10;31.60
68385;DHT22;55336;43.062;25.626;2023-09-19T09:19:37;33.20;33.20
68385;DHT22;55336;43.062;25.626;2023-09-19T09:25:18;32.60;35.50
68385;DHT22;55336;43.062;25.626;2023-09-19T09:27:46;33.00;35.60
68385;DHT22;55336;43.062;25.626;2023-09-19T09:30:36;33.10;34.70
68385;DHT22;55336;43.062;25.626;2023-09-19T09:33:10;33.10;34.90
68385;DHT22;55336;43.062;25.626;2023-09-19T09:36:00;33.60;33.80
68385;DHT22;55336;43.062;25.626;2023-09-19T09:38:46;33.20;34.00
68385;DHT22;55336;43.062;25.626;2023-09-19T09:41:15;32.60;35.10
68385;DHT22;55336;43.062;25.626;2023-09-19T09:43:53;31.00;35.20
68385;DHT22;55336;43.062;25.626;2023-09-19T09:46:20;31.20;34.60
68385;DHT22;55336;43.062;25.626;2023-09-19T09:49:06;31.00;34.50
68385;DHT22;55336;43.062;25.626;2023-09-19T09:52:02;30.40;38.80
68385;DHT22;55336;43.062;25.626;2023-09-19T09:55:02;31.50;34.70
68385;DHT22;55336;43.062;25.626;2023-09-19T09:57:39;30.50;37.50
68385;DHT22;55336;43.062;25.626;2023-09-19T10:02:52;29.00;41.40
68385;DHT22;55336;43.062;25.626;2023-09-19T10:05:20;29.20;41.60
68385;DHT22;55336;43.062;25.626;2023-09-19T10:07:47;29.90;40.50
68385;DHT22;55336;43.062;25.626;2023-09-19T10:10:38;31.20;36.30
68385;DHT22;55336;43.062;25.626;2023-09-19T10:13:08;32.10;34.80
68385;DHT22;55336;43.062;25.626;2023-09-19T10:15:48;32.60;33.20
68385;DHT22;55336;43.062;25.626;2023-09-19T10:18:26;32.80;32.60
68385;DHT22;55336;43.062;25.626;2023-09-19T10:20:53;33.40;34.00
68385;DHT22;55336;43.062;25.626;2023-09-19T10:23:21;34.50;33.10
68385;DHT22;55336;43.062;25.626;2023-09-19T10:25:52;34.60;31.80
68385;DHT22;55336;43.062;25.626;2023-09-19T10:28:19;34.00;33.10
68385;DHT22;55336;43.062;25.626;2023-09-19T10:30:53;33.20;34.80
68385;DHT22;55336;43.062;25.626;2023-09-19T10:33:21;30.70;39.70
68385;DHT22;55336;43.062;25.626;2023-09-19T10:35:51;30.30;41.50
68385;DHT22;55336;43.062;25.626;2023-09-19T10:38:24;30.50;39.60
68385;DHT22;55336;43.062;25.626;2023-09-19T10:40:52;30.20;39.80
68385;DHT22;55336;43.062;25.626;2023-09-19T10:43:26;30.00;41.50
68385;DHT22;55336;43.062;25.626;2023-09-19T10:46:00;29.60;41.40
68385;DHT22;55336;43.062;25.626;2023-09-19T10:48:31;29.60;41.60
68385;DHT22;55336;43.062;25.626;2023-09-19T10:51:55;30.40;39.70
68385;DHT22;55336;43.062;25.626;2023-09-19T10:57:05;31.70;34.80
68385;DHT22;55336;43.062;25.626;2023-09-19T10:59:35;32.20;36.20
68385;DHT22;55336;43.062;25.626;2023-09-19T11:02:17;32.80;34.90
68385;DHT22;55336;43.062;25.626;2023-09-19T11:04:43;33.50;33.60
68385;DHT22;55336;43.062;25.626;2023-09-19T11:07:15;33.90;31.90
68385;DHT22;55336;43.062;25.626;2023-09-19T11:09:49;33.50;32.00
68385;DHT22;55336;43.062;25.626;2023-09-19T11:14:58;33.10;32.10
68385;DHT22;55336;43.062;25.626;2023-09-19T11:17:37;31.60;32.00
68385;DHT22;55336;43.062;25.626;2023-09-19T11:30:45;33.70;33.40
68385;DHT22;55336;43.062;25.626;2023-09-19T11:36:59;31.10;34.90
68385;DHT22;55336;43.062;25.626;2023-09-19T11:39:26;30.10;41.60
68385;DHT22;55336;43.062;25.626;2023-09-19T11:41:55;30.30;40.50
68385;DHT22;55336;43.062;25.626;2023-09-19T11:44:33;30.20;44.10
68385;DHT22;55336;43.062;25.626;2023-09-19T11:47:04;30.70;41.80
68385;DHT22;55336;43.062;25.626;2023-09-19T11:49:32;31.20;38.00
68385;DHT22;55336;43.062;25.626;2023-09-19T11:52:02;31.80;35.20
68385;DHT22;55336;43.062;25.626;2023-09-19T11:54:32;32.40;34.90
68385;DHT22;55336;43.062;25.626;2023-09-19T11:56:59;33.00;33.80
68385;DHT22;55336;43.062;25.626;2023-09-19T11:59:30;33.70;33.40
68385;DHT22;55336;43.062;25.626;2023-09-19T12:02:05;34.30;33.80
68385;DHT22;55336;43.062;25.626;2023-09-19T12:04:36;34.40;32.40
68385;DHT22;55336;43.062;25.626;2023-09-19T12:07:04;34.40;32.90
68385;DHT22;55336;43.062;25.626;2023-09-19T12:09:31;34.50;31.20
68385;DHT22;55336;43.062;25.626;2023-09-19T12:11:57;34.50;30.90
68385;DHT22;55336;43.062;25.626;2023-09-19T12:14:25;34.70;31.60
68385;DHT22;55336;43.062;25.626;2023-09-19T12:16:55;33.50;33.00
68385;DHT22;55336;43.062;25.626;2023-09-19T12:19:23;34.80;31.70
68385;DHT22;55336;43.062;25.626;2023-09-19T12:22:02;34.80;29.80
68385;DHT22;55336;43.062;25.626;2023-09-19T12:24:32;35.10;30.20
68385;DHT22;55336;43.062;25.626;2023-09-19T12:27:02;35.10;31.00
68385;DHT22;55336;43.062;25.626;2023-09-19T12:29:44;34.40;30.80
68385;DHT22;55336;43.062;25.626;2023-09-19T12:32:11;34.40;30.90
68385;DHT22;55336;43.062;25.626;2023-09-19T12:34:38;34.20;30.80
68385;DHT22;55336;43.062;25.626;2023-09-19T12:37:14;34.20;31.30
68385;DHT22;55336;43.062;25.626;2023-09-19T12:40:07;34.00;31.40
68385;DHT22;55336;43.062;25.626;2023-09-19T12:42:48;32.90;32.80
68385;DHT22;55336;43.062;25.626;2023-09-19T12:45:15;32.60;33.30
68385;DHT22;55336;43.062;25.626;2023-09-19T12:48:21;32.70;33.60
68385;DHT22;55336;43.062;25.626;2023-09-19T12:51:11;32.50;36.70
68385;DHT22;55336;43.062;25.626;2023-09-19T12:53:45;32.40;34.70
68385;DHT22;55336;43.062;25.626;2023-09-19T12:56:16;32.40;35.00
68385;DHT22;55336;43.062;25.626;2023-09-19T12:58:56;32.10;37.30
68385;DHT22;55336;43.062;25.626;2023-09-19T13:01:26;32.40;33.40
68385;DHT22;55336;43.062;25.626;2023-09-19T13:06:46;33.10;32.00
68385;DHT22;55336;43.062;25.626;2023-09-19T13:09:15;33.50;31.00
68385;DHT22;55336;43.062;25.626;2023-09-19T13:11:42;33.70;31.10
68385;DHT22;55336;43.062;25.626;2023-09-19T13:14:25;34.20;30.10
68385;DHT22;55336;43.062;25.626;2023-09-19T13:17:00;34.40;31.10
68385;DHT22;55336;43.062;25.626;2023-09-19T13:22:39;35.30;29.60
68385;DHT22;55336;43.062;25.626;2023-09-19T13:25:13;35.30;28.10
68385;DHT22;55336;43.062;25.626;2023-09-19T13:27:41;35.30;29.40
68385;DHT22;55336;43.062;25.626;2023-09-19T13:30:08;35.00;29.00
68385;DHT22;55336;43.062;25.626;2023-09-19T13:32:34;34.80;29.30
68385;DHT22;55336;43.062;25.626;2023-09-19T13:34:59;34.70;29.10
68385;DHT22;55336;43.062;25.626;2023-09-19T13:37:25;35.00;29.40
68385;DHT22;55336;43.062;25.626;2023-09-19T13:39:52;34.50;30.30
68385;DHT22;55336;43.062;25.626;2023-09-19T13:42:19;34.20;29.50
68385;DHT22;55336;43.062;25.626;2023-09-19T13:44:47;34.20;29.10
68385;DHT22;55336;43.062;25.626;2023-09-19T13:47:13;34.40;30.30
68385;DHT22;55336;43.062;25.626;2023-09-19T13:49:40;34.40;28.70
68385;DHT22;55336;43.062;25.626;2023-09-19T13:52:08;34.60;28.30
68385;DHT22;55336;43.062;25.626;2023-09-19T13:54:34;34.70;27.70
68385;DHT22;55336;43.062;25.626;2023-09-19T13:57:00;33.60;30.70
68385;DHT22;55336;43.062;25.626;2023-09-19T13:59:26;33.90;28.00
68385;DHT22;55336;43.062;25.626;2023-09-19T14:01:54;34.20;28.80
68385;DHT22;55336;43.062;25.626;2023-09-19T14:04:21;34.40;26.90
68385;DHT22;55336;43.062;25.626;2023-09-19T14:06:47;34.60;26.90
68385;DHT22;55336;43.062;25.626;2023-09-19T14:09:13;34.90;26.30
68385;DHT22;55336;43.062;25.626;2023-09-19T14:11:39;34.70;25.80
68385;DHT22;55336;43.062;25.626;2023-09-19T14:14:05;34.80;25.60
68385;DHT22;55336;43.062;25.626;2023-09-19T14:16:31;34.80;24.60
68385;DHT22;55336;43.062;25.626;2023-09-19T14:18:59;34.30;26.30
68385;DHT22;55336;43.062;25.626;2023-09-19T14:21:26;34.20;26.30
68385;DHT22;55336;43.062;25.626;2023-09-19T14:23:51;34.20;27.90
68385;DHT22;55336;43.062;25.626;2023-09-19T14:26:20;34.20;25.50
68385;DHT22;55336;43.062;25.626;2023-09-19T14:28:46;34.20;25.20
68385;DHT22;55336;43.062;25.626;2023-09-19T14:31:12;33.80;30.50
68385;DHT22;55336;43.062;25.626;2023-09-19T14:33:38;33.00;29.80
68385;DHT22;55336;43.062;25.626;2023-09-19T14:36:08;32.60;29.10
68385;DHT22;55336;43.062;25.626;2023-09-19T14:38:35;32.10;30.90
68385;DHT22;55336;43.062;25.626;2023-09-19T14:41:02;31.00;35.80
68385;DHT22;55336;43.062;25.626;2023-09-19T14:43:29;29.10;45.50
68385;DHT22;55336;43.062;25.626;2023-09-19T14:45:56;27.90;47.70
68385;DHT22;55336;43.062;25.626;2023-09-19T14:48:25;27.50;49.20
68385;DHT22;55336;43.062;25.626;2023-09-19T14:50:52;27.30;48.40
68385;DHT22;55336;43.062;25.626;2023-09-19T14:53:18;27.40;46.30
68385;DHT22;55336;43.062;25.626;2023-09-19T14:55:44;26.90;51.20
68385;DHT22;55336;43.062;25.626;2023-09-19T14:58:13;26.80;52.30
68385;DHT22;55336;43.062;25.626;2023-09-19T15:00:39;26.90;48.80
68385;DHT22;55336;43.062;25.626;2023-09-19T15:03:06;27.30;50.10
68385;DHT22;55336;43.062;25.626;2023-09-19T15:05:32;28.10;49.30
68385;DHT22;55336;43.062;25.626;2023-09-19T15:08:00;28.50;49.00
68385;DHT22;55336;43.062;25.626;2023-09-19T15:10:26;28.80;47.50
68385;DHT22;55336;43.062;25.626;2023-09-19T15:12:54;29.50;47.00
68385;DHT22;55336;43.062;25.626;2023-09-19T15:15:20;29.50;46.30
68385;DHT22;55336;43.062;25.626;2023-09-19T15:17:46;29.20;47.30
68385;DHT22;55336;43.062;25.626;2023-09-19T15:20:12;29.10;50.20
68385;DHT22;55336;43.062;25.626;2023-09-19T15:22:39;29.00;49.20
68385;DHT22;55336;43.062;25.626;2023-09-19T15:25:06;28.40;50.60
68385;DHT22;55336;43.062;25.626;2023-09-19T15:27:32;27.60;51.10
68385;DHT22;55336;43.062;25.626;2023-09-19T15:30:01;27.30;52.60
68385;DHT22;55336;43.062;25.626;2023-09-19T15:32:28;27.10;53.10
68385;DHT22;55336;43.062;25.626;2023-09-19T15:34:54;26.80;53.40
68385;DHT22;55336;43.062;25.626;2023-09-19T15:37:20;26.30;56.00
68385;DHT22;55336;43.062;25.626;2023-09-19T15:39:47;26.00;57.50
68385;DHT22;55336;43.062;25.626;2023-09-19T15:42:14;25.90;59.20
68385;DHT22;55336;43.062;25.626;2023-09-19T15:44:42;25.60;60.10
68385;DHT22;55336;43.062;25.626;2023-09-19T15:47:09;25.50;60.00
68385;DHT22;55336;43.062;25.626;2023-09-19T15:49:35;25.40;60.30
68385;DHT22;55336;43.062;25.626;2023-09-19T15:52:01;25.20;61.90
68385;DHT22;55336;43.062;25.626;2023-09-19T15:54:27;25.00;62.70
68385;DHT22;55336;43.062;25.626;2023-09-19T15:56:53;24.80;63.20
68385;DHT22;55336;43.062;25.626;2023-09-19T15:59:20;24.60;64.10
68385;DHT22;55336;43.062;25.626;2023-09-19T16:01:46;24.40;63.30
68385;DHT22;55336;43.062;25.626;2023-09-19T16:04:12;24.30;63.40
68385;DHT22;55336;43.062;25.626;2023-09-19T16:06:39;24.10;65.50
68385;DHT22;55336;43.062;25.626;2023-09-19T16:09:06;23.90;66.20
68385;DHT22;55336;43.062;25.626;2023-09-19T16:11:33;23.40;70.30
68385;DHT22;55336;43.062;25.626;2023-09-19T16:14:01;23.00;73.90
68385;DHT22;55336;43.062;25.626;2023-09-19T16:16:28;22.80;75.00
68385;DHT22;55336;43.062;25.626;2023-09-19T16:19:00;22.60;78.20